D73

Monroe-Walton County Airport

Monroe, Georgia, USA
METAR KD73 160635Z AUTO 00000KT 10SM BKN019 OVC025 09/08 A3002 RMK AO2 T00870082
Observed Flight Rules
Dec-16 @ 06:35 UTC (19 minutes ago) Marginal Visual Flight Rules
Visibility Clouds
10 miles
  • Broken at 1,900' AGL
  • Overcast at 2,500' AGL
Temperatures Readings
Current 9°C / 48°F
Dewpoint 8°C / 46°F
Humidity 94%
Altimeter 30.02" Hg
Pressure 1017 hPa
Elevation 267
METAR KD73 160635Z AUTO 00000KT 10SM BKN019 OVC025 09/08 A3002 RMK AO2 T00870082
Observed Flight Rules
Dec-16 @ 06:35 UTC
(19 minutes ago)
MVFR
Clouds
  • Broken at 1,900' AGL
  • Overcast at 2,500' AGL
Temperature Dewpoint
9°C / 48°F 8°C / 46°F
Humidity Altimeter Pressure
94% 30.02" Hg 1017 hPa